sensor_id;sensor_type;location;lat;lon;timestamp;pressure;altitude;pressure_sealevel;temperature;humidity
31062;BME280;17724;53.546;9.974;2023-02-23T00:02:22;101188.16;;;9.03;100.00
31062;BME280;17724;53.546;9.974;2023-02-23T00:06:24;101179.78;;;9.09;100.00
31062;BME280;17724;53.546;9.974;2023-02-23T00:10:25;101181.94;;;9.19;100.00
31062;BME280;17724;53.546;9.974;2023-02-23T00:14:29;101184.44;;;8.97;100.00
31062;BME280;17724;53.546;9.974;2023-02-23T00:18:30;101181.47;;;8.99;100.00
31062;BME280;17724;53.546;9.974;2023-02-23T00:22:40;101170.50;;;9.10;100.00
31062;BME280;17724;53.546;9.974;2023-02-23T00:26:41;101157.72;;;8.93;100.00
31062;BME280;17724;53.546;9.974;2023-02-23T00:30:41;101172.16;;;9.00;100.00
31062;BME280;17724;53.546;9.974;2023-02-23T00:34:45;101173.97;;;9.06;100.00
31062;BME280;17724;53.546;9.974;2023-02-23T00:38:54;101167.16;;;8.97;100.00
31062;BME280;17724;53.546;9.974;2023-02-23T00:42:54;101167.75;;;8.99;100.00
31062;BME280;17724;53.546;9.974;2023-02-23T00:46:55;101185.03;;;8.87;100.00
31062;BME280;17724;53.546;9.974;2023-02-23T00:51:03;101175.72;;;8.77;100.00
31062;BME280;17724;53.546;9.974;2023-02-23T00:55:09;101181.34;;;9.05;100.00
31062;BME280;17724;53.546;9.974;2023-02-23T00:59:10;101171.69;;;8.79;100.00
31062;BME280;17724;53.546;9.974;2023-02-23T01:03:11;101173.00;;;8.88;100.00
31062;BME280;17724;53.546;9.974;2023-02-23T01:07:12;101171.06;;;8.77;100.00
31062;BME280;17724;53.546;9.974;2023-02-23T01:11:19;101186.34;;;8.85;100.00
31062;BME280;17724;53.546;9.974;2023-02-23T01:15:20;101181.69;;;8.85;100.00
31062;BME280;17724;53.546;9.974;2023-02-23T01:19:21;101176.31;;;8.67;100.00
31062;BME280;17724;53.546;9.974;2023-02-23T01:23:22;101179.91;;;8.68;100.00
31062;BME280;17724;53.546;9.974;2023-02-23T01:27:23;101181.00;;;8.78;100.00
31062;BME280;17724;53.546;9.974;2023-02-23T01:31:26;101180.28;;;8.83;100.00
31062;BME280;17724;53.546;9.974;2023-02-23T01:35:28;101180.38;;;8.76;100.00
31062;BME280;17724;53.546;9.974;2023-02-23T01:39:28;101175.00;;;8.70;100.00
31062;BME280;17724;53.546;9.974;2023-02-23T01:43:29;101167.13;;;8.50;100.00
31062;BME280;17724;53.546;9.974;2023-02-23T01:47:29;101170.59;;;8.69;100.00
31062;BME280;17724;53.546;9.974;2023-02-23T01:51:33;101171.22;;;8.71;100.00
31062;BME280;17724;53.546;9.974;2023-02-23T01:55:38;101177.91;;;8.75;100.00
31062;BME280;17724;53.546;9.974;2023-02-23T01:59:41;101168.59;;;8.76;100.00
31062;BME280;17724;53.546;9.974;2023-02-23T02:03:48;101164.25;;;8.56;100.00
31062;BME280;17724;53.546;9.974;2023-02-23T02:07:50;101167.38;;;8.60;100.00
31062;BME280;17724;53.546;9.974;2023-02-23T02:11:57;101166.41;;;8.54;100.00
31062;BME280;17724;53.546;9.974;2023-02-23T02:16:22;101160.09;;;8.54;100.00
31062;BME280;17724;53.546;9.974;2023-02-23T02:33:34;101177.00;;;8.39;100.00
31062;BME280;17724;53.546;9.974;2023-02-23T02:42:19;101166.09;;;8.32;100.00
31062;BME280;17724;53.546;9.974;2023-02-23T02:46:37;101165.97;;;8.27;100.00
31062;BME280;17724;53.546;9.974;2023-02-23T02:51:00;101168.31;;;8.42;100.00
31062;BME280;17724;53.546;9.974;2023-02-23T02:55:13;101161.94;;;8.30;100.00
31062;BME280;17724;53.546;9.974;2023-02-23T02:59:19;101154.03;;;8.22;100.00
31062;BME280;17724;53.546;9.974;2023-02-23T03:03:41;101157.28;;;8.30;100.00
31062;BME280;17724;53.546;9.974;2023-02-23T03:12:52;101157.50;;;8.29;100.00
31062;BME280;17724;53.546;9.974;2023-02-23T03:17:35;101154.38;;;7.83;100.00
31062;BME280;17724;53.546;9.974;2023-02-23T03:26:58;101146.63;;;8.10;100.00
31062;BME280;17724;53.546;9.974;2023-02-23T03:31:27;101147.47;;;7.81;100.00
31062;BME280;17724;53.546;9.974;2023-02-23T03:35:56;101156.09;;;7.66;100.00
31062;BME280;17724;53.546;9.974;2023-02-23T03:40:28;101145.78;;;7.80;100.00
31062;BME280;17724;53.546;9.974;2023-02-23T03:44:51;101152.53;;;7.96;100.00
31062;BME280;17724;53.546;9.974;2023-02-23T03:49:12;101144.09;;;8.09;100.00
31062;BME280;17724;53.546;9.974;2023-02-23T03:53:50;101136.94;;;7.96;100.00
31062;BME280;17724;53.546;9.974;2023-02-23T03:58:13;101143.47;;;7.95;100.00
31062;BME280;17724;53.546;9.974;2023-02-23T04:02:36;101149.41;;;8.22;100.00
31062;BME280;17724;53.546;9.974;2023-02-23T04:06:57;101154.19;;;7.97;100.00
31062;BME280;17724;53.546;9.974;2023-02-23T04:11:32;101158.66;;;8.21;100.00
31062;BME280;17724;53.546;9.974;2023-02-23T04:16:04;101155.84;;;8.28;100.00
31062;BME280;17724;53.546;9.974;2023-02-23T04:20:05;101159.00;;;8.43;100.00
31062;BME280;17724;53.546;9.974;2023-02-23T04:24:06;101160.84;;;8.31;100.00
31062;BME280;17724;53.546;9.974;2023-02-23T04:28:06;101156.75;;;8.10;100.00
31062;BME280;17724;53.546;9.974;2023-02-23T04:32:11;101158.78;;;8.14;100.00
31062;BME280;17724;53.546;9.974;2023-02-23T04:36:12;101170.72;;;8.20;100.00
31062;BME280;17724;53.546;9.974;2023-02-23T04:40:12;101157.91;;;8.02;100.00
31062;BME280;17724;53.546;9.974;2023-02-23T04:44:13;101160.69;;;7.84;100.00
31062;BME280;17724;53.546;9.974;2023-02-23T04:48:13;101157.53;;;7.99;100.00
31062;BME280;17724;53.546;9.974;2023-02-23T04:52:14;101156.41;;;8.18;100.00
31062;BME280;17724;53.546;9.974;2023-02-23T04:56:14;101160.84;;;8.31;100.00
31062;BME280;17724;53.546;9.974;2023-02-23T05:00:16;101160.09;;;8.42;100.00
31062;BME280;17724;53.546;9.974;2023-02-23T05:04:17;101154.13;;;8.45;100.00
31062;BME280;17724;53.546;9.974;2023-02-23T05:08:17;101148.25;;;8.42;100.00
31062;BME280;17724;53.546;9.974;2023-02-23T05:12:18;101149.97;;;8.54;100.00
31062;BME280;17724;53.546;9.974;2023-02-23T05:16:19;101160.63;;;8.32;100.00
31062;BME280;17724;53.546;9.974;2023-02-23T05:20:20;101167.75;;;8.33;100.00
31062;BME280;17724;53.546;9.974;2023-02-23T05:24:21;101155.13;;;8.32;100.00
31062;BME280;17724;53.546;9.974;2023-02-23T05:28:21;101162.97;;;8.29;100.00
31062;BME280;17724;53.546;9.974;2023-02-23T05:32:22;101163.72;;;8.36;100.00
31062;BME280;17724;53.546;9.974;2023-02-23T05:36:22;101160.94;;;8.54;100.00
31062;BME280;17724;53.546;9.974;2023-02-23T05:40:23;101164.88;;;8.58;100.00
31062;BME280;17724;53.546;9.974;2023-02-23T05:44:23;101162.84;;;8.54;100.00
31062;BME280;17724;53.546;9.974;2023-02-23T05:48:24;101170.72;;;8.62;100.00
31062;BME280;17724;53.546;9.974;2023-02-23T05:52:24;101180.56;;;8.39;100.00
31062;BME280;17724;53.546;9.974;2023-02-23T05:56:25;101167.13;;;8.50;100.00
31062;BME280;17724;53.546;9.974;2023-02-23T06:00:25;101171.56;;;8.62;100.00
31062;BME280;17724;53.546;9.974;2023-02-23T06:04:26;101183.81;;;8.60;100.00
31062;BME280;17724;53.546;9.974;2023-02-23T06:08:26;101184.56;;;8.67;100.00
31062;BME280;17724;53.546;9.974;2023-02-23T06:12:27;101174.91;;;8.76;100.00
31062;BME280;17724;53.546;9.974;2023-02-23T06:16:27;101180.38;;;8.76;100.00
31062;BME280;17724;53.546;9.974;2023-02-23T06:20:28;101188.63;;;8.76;100.00
31062;BME280;17724;53.546;9.974;2023-02-23T06:24:28;101187.06;;;8.80;100.00
31062;BME280;17724;53.546;9.974;2023-02-23T06:28:29;101187.38;;;8.49;100.00
31062;BME280;17724;53.546;9.974;2023-02-23T06:32:29;101187.41;;;8.60;100.00
31062;BME280;17724;53.546;9.974;2023-02-23T06:36:30;101191.59;;;8.63;100.00
31062;BME280;17724;53.546;9.974;2023-02-23T06:40:31;101191.69;;;8.56;100.00
31062;BME280;17724;53.546;9.974;2023-02-23T06:44:31;101189.56;;;8.58;100.00
31062;BME280;17724;53.546;9.974;2023-02-23T06:48:34;101205.44;;;8.92;100.00
31062;BME280;17724;53.546;9.974;2023-02-23T06:52:35;101209.13;;;8.85;100.00
31062;BME280;17724;53.546;9.974;2023-02-23T06:56:35;101214.16;;;9.00;100.00
31062;BME280;17724;53.546;9.974;2023-02-23T07:00:36;101218.56;;;9.01;100.00
31062;BME280;17724;53.546;9.974;2023-02-23T07:04:38;101223.34;;;8.94;100.00
31062;BME280;17724;53.546;9.974;2023-02-23T07:08:38;101229.41;;;8.96;100.00
31062;BME280;17724;53.546;9.974;2023-02-23T07:12:39;101229.91;;;9.05;100.00
31062;BME280;17724;53.546;9.974;2023-02-23T07:16:39;101236.47;;;9.04;100.00
31062;BME280;17724;53.546;9.974;2023-02-23T07:20:40;101236.91;;;8.89;100.00
31062;BME280;17724;53.546;9.974;2023-02-23T07:24:40;101242.72;;;8.69;100.00
31062;BME280;17724;53.546;9.974;2023-02-23T07:28:42;101245.88;;;8.96;100.00
31062;BME280;17724;53.546;9.974;2023-02-23T07:32:42;101240.63;;;8.95;100.00
31062;BME280;17724;53.546;9.974;2023-02-23T07:36:43;101246.72;;;8.97;100.00
31062;BME280;17724;53.546;9.974;2023-02-23T07:40:43;101256.28;;;9.06;100.00
31062;BME280;17724;53.546;9.974;2023-02-23T07:44:44;101253.63;;;8.99;100.00
31062;BME280;17724;53.546;9.974;2023-02-23T07:48:44;101253.34;;;8.77;100.00
31062;BME280;17724;53.546;9.974;2023-02-23T07:52:45;101249.94;;;8.82;100.00
31062;BME280;17724;53.546;9.974;2023-02-23T07:56:45;101263.75;;;8.87;100.00
31062;BME280;17724;53.546;9.974;2023-02-23T08:00:46;101269.84;;;9.01;100.00
31062;BME280;17724;53.546;9.974;2023-02-23T08:04:46;101265.16;;;8.66;100.00
31062;BME280;17724;53.546;9.974;2023-02-23T08:08:47;101275.66;;;8.81;100.00
31062;BME280;17724;53.546;9.974;2023-02-23T08:12:48;101278.91;;;8.78;100.00
31062;BME280;17724;53.546;9.974;2023-02-23T08:16:48;101277.97;;;8.96;100.00
31062;BME280;17724;53.546;9.974;2023-02-23T08:20:49;101286.56;;;8.99;100.00
31062;BME280;17724;53.546;9.974;2023-02-23T08:24:49;101280.34;;;8.92;100.00
31062;BME280;17724;53.546;9.974;2023-02-23T08:28:51;101285.38;;;8.95;100.00
31062;BME280;17724;53.546;9.974;2023-02-23T08:32:51;101283.69;;;8.94;100.00
31062;BME280;17724;53.546;9.974;2023-02-23T08:36:52;101287.97;;;8.90;100.00
31062;BME280;17724;53.546;9.974;2023-02-23T08:40:53;101283.91;;;8.93;100.00
31062;BME280;17724;53.546;9.974;2023-02-23T08:44:54;101283.31;;;8.79;100.00
31062;BME280;17724;53.546;9.974;2023-02-23T08:48:55;101277.84;;;8.91;100.00
31062;BME280;17724;53.546;9.974;2023-02-23T08:52:55;101283.59;;;9.12;100.00
31062;BME280;17724;53.546;9.974;2023-02-23T08:56:56;101289.41;;;8.93;100.00
31062;BME280;17724;53.546;9.974;2023-02-23T09:00:57;101284.97;;;8.80;100.00
31062;BME280;17724;53.546;9.974;2023-02-23T09:04:59;101280.81;;;9.01;100.00
31062;BME280;17724;53.546;9.974;2023-02-23T09:09:00;101290.88;;;8.65;100.00
31062;BME280;17724;53.546;9.974;2023-02-23T09:13:00;101287.34;;;8.76;100.00
31062;BME280;17724;53.546;9.974;2023-02-23T09:17:03;101288.81;;;8.91;100.00
31062;BME280;17724;53.546;9.974;2023-02-23T09:21:05;101287.38;;;8.88;100.00
31062;BME280;17724;53.546;9.974;2023-02-23T09:25:07;101291.09;;;8.94;100.00
31062;BME280;17724;53.546;9.974;2023-02-23T09:29:09;101285.69;;;8.45;100.00
31062;BME280;17724;53.546;9.974;2023-02-23T09:33:10;101283.34;;;8.60;100.00
31062;BME280;17724;53.546;9.974;2023-02-23T09:37:11;101284.09;;;8.68;100.00
31062;BME280;17724;53.546;9.974;2023-02-23T09:45:41;101300.88;;;8.59;100.00
31062;BME280;17724;53.546;9.974;2023-02-23T09:49:44;101301.78;;;8.53;100.00
31062;BME280;17724;53.546;9.974;2023-02-23T09:53:56;101307.63;;;8.27;100.00
31062;BME280;17724;53.546;9.974;2023-02-23T09:58:05;101314.91;;;8.33;100.00
31062;BME280;17724;53.546;9.974;2023-02-23T10:02:34;101320.06;;;8.11;100.00
31062;BME280;17724;53.546;9.974;2023-02-23T10:06:39;101310.13;;;8.47;100.00
31062;BME280;17724;53.546;9.974;2023-02-23T10:10:46;101315.16;;;8.50;100.00
31062;BME280;17724;53.546;9.974;2023-02-23T10:23:22;101314.72;;;8.64;100.00
31062;BME280;17724;53.546;9.974;2023-02-23T10:27:34;101315.09;;;8.68;100.00
31062;BME280;17724;53.546;9.974;2023-02-23T10:31:48;101312.81;;;8.65;100.00
31062;BME280;17724;53.546;9.974;2023-02-23T10:35:56;101311.09;;;8.82;100.00
31062;BME280;17724;53.546;9.974;2023-02-23T10:39:57;101321.94;;;8.89;100.00
31062;BME280;17724;53.546;9.974;2023-02-23T10:43:58;101325.19;;;8.86;100.00
31062;BME280;17724;53.546;9.974;2023-02-23T10:48:07;101331.75;;;8.97;100.00
31062;BME280;17724;53.546;9.974;2023-02-23T10:52:13;101331.88;;;8.60;100.00
31062;BME280;17724;53.546;9.974;2023-02-23T10:56:16;101334.94;;;8.82;100.00
31062;BME280;17724;53.546;9.974;2023-02-23T11:00:21;101327.94;;;8.86;100.00
31062;BME280;17724;53.546;9.974;2023-02-23T11:04:28;101339.22;;;8.78;100.00
31062;BME280;17724;53.546;9.974;2023-02-23T11:08:32;101338.75;;;8.81;100.00
31062;BME280;17724;53.546;9.974;2023-02-23T11:12:38;101338.97;;;8.79;100.00
31062;BME280;17724;53.546;9.974;2023-02-23T11:16:42;101332.44;;;8.50;100.00
31062;BME280;17724;53.546;9.974;2023-02-23T11:20:42;101326.44;;;8.72;100.00
31062;BME280;17724;53.546;9.974;2023-02-23T11:24:43;101325.06;;;8.93;100.00
31062;BME280;17724;53.546;9.974;2023-02-23T11:28:44;101310.63;;;8.97;100.00
31062;BME280;17724;53.546;9.974;2023-02-23T11:32:50;101318.88;;;8.97;100.00
31062;BME280;17724;53.546;9.974;2023-02-23T11:37:07;101296.50;;;9.24;100.00
31062;BME280;17724;53.546;9.974;2023-02-23T11:41:22;101310.94;;;9.31;100.00
31062;BME280;17724;53.546;9.974;2023-02-23T11:45:25;101296.00;;;9.15;100.00
31062;BME280;17724;53.546;9.974;2023-02-23T11:49:30;101307.69;;;9.10;100.00
31062;BME280;17724;53.546;9.974;2023-02-23T11:53:36;101304.34;;;9.20;100.00
31062;BME280;17724;53.546;9.974;2023-02-23T11:57:39;101306.03;;;9.21;100.00
31062;BME280;17724;53.546;9.974;2023-02-23T12:01:42;101303.66;;;9.36;100.00
31062;BME280;17724;53.546;9.974;2023-02-23T12:05:49;101302.81;;;9.48;100.00
31062;BME280;17724;53.546;9.974;2023-02-23T12:10:20;101294.13;;;9.62;100.00
31062;BME280;17724;53.546;9.974;2023-02-23T12:14:39;101299.72;;;9.56;100.00
31062;BME280;17724;53.546;9.974;2023-02-23T12:23:08;101302.25;;;9.46;100.00
31062;BME280;17724;53.546;9.974;2023-02-23T12:27:14;101292.19;;;9.28;100.00
31062;BME280;17724;53.546;9.974;2023-02-23T12:31:41;101296.03;;;9.62;100.00
31062;BME280;17724;53.546;9.974;2023-02-23T12:35:57;101298.16;;;9.36;100.00
31062;BME280;17724;53.546;9.974;2023-02-23T12:44:31;101300.44;;;9.28;100.00
31062;BME280;17724;53.546;9.974;2023-02-23T12:48:45;101300.44;;;9.51;100.00
31062;BME280;17724;53.546;9.974;2023-02-23T12:53:15;101299.72;;;9.32;100.00
31062;BME280;17724;53.546;9.974;2023-02-23T13:01:20;101292.56;;;9.31;100.00
31062;BME280;17724;53.546;9.974;2023-02-23T13:05:30;101293.50;;;9.25;100.00
31062;BME280;17724;53.546;9.974;2023-02-23T13:14:29;101292.81;;;9.30;100.00
31062;BME280;17724;53.546;9.974;2023-02-23T13:18:47;101279.66;;;9.08;100.00
31062;BME280;17724;53.546;9.974;2023-02-23T13:22:55;101278.56;;;9.09;100.00
31062;BME280;17724;53.546;9.974;2023-02-23T13:27:25;101278.59;;;9.33;100.00
31062;BME280;17724;53.546;9.974;2023-02-23T13:31:36;101276.19;;;9.25;100.00
31062;BME280;17724;53.546;9.974;2023-02-23T13:35:38;101272.41;;;9.37;100.00
31062;BME280;17724;53.546;9.974;2023-02-23T13:49:01;101281.13;;;9.46;100.00
31062;BME280;17724;53.546;9.974;2023-02-23T13:53:06;101267.59;;;9.45;100.00
31062;BME280;17724;53.546;9.974;2023-02-23T13:57:12;101268.28;;;9.75;100.00
31062;BME280;17724;53.546;9.974;2023-02-23T14:01:21;101281.19;;;9.86;100.00
31062;BME280;17724;53.546;9.974;2023-02-23T14:05:24;101264.69;;;9.86;100.00
31062;BME280;17724;53.546;9.974;2023-02-23T14:09:37;101272.19;;;10.03;100.00
31062;BME280;17724;53.546;9.974;2023-02-23T14:13:56;101274.13;;;9.91;100.00
31062;BME280;17724;53.546;9.974;2023-02-23T14:18:03;101265.44;;;9.70;100.00
31062;BME280;17724;53.546;9.974;2023-02-23T14:22:08;101273.66;;;9.94;100.00
31062;BME280;17724;53.546;9.974;2023-02-23T14:26:34;101272.59;;;9.83;99.86
31062;BME280;17724;53.546;9.974;2023-02-23T14:30:46;101275.44;;;9.88;100.00
31062;BME280;17724;53.546;9.974;2023-02-23T14:34:57;101272.47;;;9.78;100.00
31062;BME280;17724;53.546;9.974;2023-02-23T14:39:08;101264.00;;;9.68;100.00
31062;BME280;17724;53.546;9.974;2023-02-23T14:47:44;101265.53;;;9.87;99.47
31062;BME280;17724;53.546;9.974;2023-02-23T14:51:51;101269.75;;;9.78;100.00
31062;BME280;17724;53.546;9.974;2023-02-23T14:55:52;101270.78;;;9.88;100.00
31062;BME280;17724;53.546;9.974;2023-02-23T14:59:58;101271.03;;;9.87;99.79
31062;BME280;17724;53.546;9.974;2023-02-23T15:04:28;101262.50;;;10.00;98.44
31062;BME280;17724;53.546;9.974;2023-02-23T15:08:29;101276.16;;;10.24;98.66
31062;BME280;17724;53.546;9.974;2023-02-23T15:12:35;101273.50;;;10.00;98.70
31062;BME280;17724;53.546;9.974;2023-02-23T15:16:37;101270.56;;;10.19;98.90
31062;BME280;17724;53.546;9.974;2023-02-23T15:20:39;101270.00;;;10.05;97.62
31062;BME280;17724;53.546;9.974;2023-02-23T15:24:46;101277.16;;;10.18;98.07
31062;BME280;17724;53.546;9.974;2023-02-23T15:28:47;101277.34;;;9.87;100.00
31062;BME280;17724;53.546;9.974;2023-02-23T15:32:48;101261.66;;;10.00;100.00
31062;BME280;17724;53.546;9.974;2023-02-23T15:37:00;101277.91;;;10.01;99.04
31062;BME280;17724;53.546;9.974;2023-02-23T15:41:05;101279.44;;;10.09;99.94
31062;BME280;17724;53.546;9.974;2023-02-23T15:49:39;101284.25;;;10.02;100.00
31062;BME280;17724;53.546;9.974;2023-02-23T15:53:41;101288.78;;;10.08;100.00
31062;BME280;17724;53.546;9.974;2023-02-23T15:57:51;101284.50;;;9.88;100.00
31062;BME280;17724;53.546;9.974;2023-02-23T16:01:52;101284.06;;;9.80;100.00
31062;BME280;17724;53.546;9.974;2023-02-23T16:06:02;101292.19;;;9.63;100.00
31062;BME280;17724;53.546;9.974;2023-02-23T16:10:25;101264.84;;;9.56;100.00
31062;BME280;17724;53.546;9.974;2023-02-23T16:14:33;101269.75;;;9.66;100.00
31062;BME280;17724;53.546;9.974;2023-02-23T16:18:39;101262.09;;;9.68;100.00
31062;BME280;17724;53.546;9.974;2023-02-23T16:22:42;101287.78;;;9.50;100.00
31062;BME280;17724;53.546;9.974;2023-02-23T16:26:53;101286.34;;;9.36;100.00
31062;BME280;17724;53.546;9.974;2023-02-23T16:31:05;101283.34;;;9.49;100.00
31062;BME280;17724;53.546;9.974;2023-02-23T16:35:17;101285.63;;;9.41;100.00
31062;BME280;17724;53.546;9.974;2023-02-23T16:39:18;101285.78;;;9.34;100.00
31062;BME280;17724;53.546;9.974;2023-02-23T16:43:19;101285.03;;;9.15;100.00
31062;BME280;17724;53.546;9.974;2023-02-23T16:51:23;101302.78;;;9.01;100.00
31062;BME280;17724;53.546;9.974;2023-02-23T16:55:25;101315.41;;;8.90;100.00
31062;BME280;17724;53.546;9.974;2023-02-23T16:59:28;101317.44;;;8.95;100.00
31062;BME280;17724;53.546;9.974;2023-02-23T17:03:29;101319.72;;;8.98;100.00
31062;BME280;17724;53.546;9.974;2023-02-23T17:07:29;101313.63;;;8.54;100.00
31062;BME280;17724;53.546;9.974;2023-02-23T17:11:30;101336.94;;;8.75;100.00
31062;BME280;17724;53.546;9.974;2023-02-23T17:15:34;101352.22;;;7.79;92.23
31062;BME280;17724;53.546;9.974;2023-02-23T17:19:35;101318.22;;;8.05;94.67
31062;BME280;17724;53.546;9.974;2023-02-23T17:23:37;101350.88;;;8.43;92.47
31062;BME280;17724;53.546;9.974;2023-02-23T17:27:42;101356.53;;;8.60;92.16
31062;BME280;17724;53.546;9.974;2023-02-23T17:31:42;101352.34;;;8.57;93.27
31062;BME280;17724;53.546;9.974;2023-02-23T17:35:43;101347.63;;;8.64;92.15
31062;BME280;17724;53.546;9.974;2023-02-23T17:39:43;101351.50;;;8.75;95.36
31062;BME280;17724;53.546;9.974;2023-02-23T17:43:47;101354.72;;;8.84;94.11
31062;BME280;17724;53.546;9.974;2023-02-23T17:47:48;101348.84;;;8.69;92.07
31062;BME280;17724;53.546;9.974;2023-02-23T17:51:48;101338.44;;;8.59;93.71
31062;BME280;17724;53.546;9.974;2023-02-23T17:55:49;101349.16;;;8.60;93.07
31062;BME280;17724;53.546;9.974;2023-02-23T17:59:50;101370.41;;;8.28;90.84
31062;BME280;17724;53.546;9.974;2023-02-23T18:03:51;101360.97;;;8.24;93.43
31062;BME280;17724;53.546;9.974;2023-02-23T18:07:52;101339.88;;;8.25;95.94
31062;BME280;17724;53.546;9.974;2023-02-23T18:11:52;101349.47;;;8.52;95.22
31062;BME280;17724;53.546;9.974;2023-02-23T18:15:57;101345.28;;;8.31;93.28
31062;BME280;17724;53.546;9.974;2023-02-23T18:19:59;101342.28;;;8.39;94.57
31062;BME280;17724;53.546;9.974;2023-02-23T18:23:59;101353.38;;;8.45;93.04
31062;BME280;17724;53.546;9.974;2023-02-23T18:28:00;101345.16;;;8.08;89.19
31062;BME280;17724;53.546;9.974;2023-02-23T18:32:02;101341.09;;;8.29;93.68
31062;BME280;17724;53.546;9.974;2023-02-23T18:36:14;101351.03;;;8.11;91.43
31062;BME280;17724;53.546;9.974;2023-02-23T18:40:15;101350.41;;;8.09;92.00
31062;BME280;17724;53.546;9.974;2023-02-23T18:44:20;101343.03;;;7.92;89.35
31062;BME280;17724;53.546;9.974;2023-02-23T18:48:22;101350.78;;;8.13;93.62
31062;BME280;17724;53.546;9.974;2023-02-23T18:52:22;101357.78;;;7.90;89.92
31062;BME280;17724;53.546;9.974;2023-02-23T18:56:26;101350.03;;;7.87;89.54
31062;BME280;17724;53.546;9.974;2023-02-23T19:00:27;101360.53;;;7.90;88.30
31062;BME280;17724;53.546;9.974;2023-02-23T19:04:32;101365.69;;;7.80;87.05
31062;BME280;17724;53.546;9.974;2023-02-23T19:08:33;101371.88;;;7.69;84.11
31062;BME280;17724;53.546;9.974;2023-02-23T19:12:34;101369.22;;;7.37;79.65
31062;BME280;17724;53.546;9.974;2023-02-23T19:16:36;101364.19;;;7.09;82.24
31062;BME280;17724;53.546;9.974;2023-02-23T19:20:37;101358.56;;;7.29;84.02
31062;BME280;17724;53.546;9.974;2023-02-23T19:24:37;101352.81;;;7.37;88.75
31062;BME280;17724;53.546;9.974;2023-02-23T19:28:38;101352.59;;;7.39;88.44
31062;BME280;17724;53.546;9.974;2023-02-23T19:32:39;101331.09;;;7.43;91.58
31062;BME280;17724;53.546;9.974;2023-02-23T19:36:40;101351.41;;;7.53;89.93
31062;BME280;17724;53.546;9.974;2023-02-23T19:40:40;101352.63;;;7.57;90.81
31062;BME280;17724;53.546;9.974;2023-02-23T19:44:45;101363.34;;;7.34;86.32
31062;BME280;17724;53.546;9.974;2023-02-23T19:48:49;101355.63;;;7.31;85.53
31062;BME280;17724;53.546;9.974;2023-02-23T19:52:51;101337.56;;;7.48;91.36
31062;BME280;17724;53.546;9.974;2023-02-23T19:56:51;101347.94;;;7.64;89.92
31062;BME280;17724;53.546;9.974;2023-02-23T20:00:53;101351.25;;;7.48;89.46
31062;BME280;17724;53.546;9.974;2023-02-23T20:04:56;101348.00;;;7.08;83.00
31062;BME280;17724;53.546;9.974;2023-02-23T20:08:57;101352.84;;;7.06;86.23
31062;BME280;17724;53.546;9.974;2023-02-23T20:12:58;101362.06;;;7.11;85.04
31062;BME280;17724;53.546;9.974;2023-02-23T20:16:59;101358.00;;;6.89;85.76
31062;BME280;17724;53.546;9.974;2023-02-23T20:21:17;101365.81;;;6.85;82.18
31062;BME280;17724;53.546;9.974;2023-02-23T20:25:18;101361.97;;;6.93;85.30
31062;BME280;17724;53.546;9.974;2023-02-23T20:29:20;101365.91;;;7.04;86.03
31062;BME280;17724;53.546;9.974;2023-02-23T20:33:21;101363.59;;;7.07;86.77
31062;BME280;17724;53.546;9.974;2023-02-23T20:37:22;101368.09;;;7.20;85.47
31062;BME280;17724;53.546;9.974;2023-02-23T20:41:22;101371.84;;;7.26;83.80
31062;BME280;17724;53.546;9.974;2023-02-23T20:45:24;101365.94;;;7.29;83.54
31062;BME280;17724;53.546;9.974;2023-02-23T20:49:26;101349.78;;;6.96;82.57
31062;BME280;17724;53.546;9.974;2023-02-23T20:53:28;101355.56;;;6.74;80.73
31062;BME280;17724;53.546;9.974;2023-02-23T20:57:28;101360.81;;;6.82;80.93
31062;BME280;17724;53.546;9.974;2023-02-23T21:01:29;101360.28;;;6.99;81.31
31062;BME280;17724;53.546;9.974;2023-02-23T21:05:36;101362.94;;;6.74;80.78
31062;BME280;17724;53.546;9.974;2023-02-23T21:09:39;101361.03;;;7.06;82.44
31062;BME280;17724;53.546;9.974;2023-02-23T21:13:40;101352.63;;;7.07;83.77
31062;BME280;17724;53.546;9.974;2023-02-23T21:17:40;101354.03;;;7.16;83.07
31062;BME280;17724;53.546;9.974;2023-02-23T21:21:51;101337.84;;;7.15;82.36
31062;BME280;17724;53.546;9.974;2023-02-23T21:25:57;101340.31;;;7.23;81.16
31062;BME280;17724;53.546;9.974;2023-02-23T21:30:06;101339.28;;;6.93;78.86
31062;BME280;17724;53.546;9.974;2023-02-23T21:34:08;101330.25;;;7.17;82.50
31062;BME280;17724;53.546;9.974;2023-02-23T21:38:08;101330.59;;;7.02;80.94
31062;BME280;17724;53.546;9.974;2023-02-23T21:42:09;101326.91;;;7.15;81.85
31062;BME280;17724;53.546;9.974;2023-02-23T21:46:13;101328.31;;;7.24;83.28
31062;BME280;17724;53.546;9.974;2023-02-23T21:50:16;101331.03;;;7.24;78.95
31062;BME280;17724;53.546;9.974;2023-02-23T21:54:20;101323.69;;;6.93;78.43
31062;BME280;17724;53.546;9.974;2023-02-23T21:58:23;101326.28;;;6.88;77.48
31062;BME280;17724;53.546;9.974;2023-02-23T22:02:23;101333.22;;;6.90;77.53
31062;BME280;17724;53.546;9.974;2023-02-23T22:06:28;101313.94;;;6.79;76.84
31062;BME280;17724;53.546;9.974;2023-02-23T22:10:30;101326.38;;;6.75;77.33
31062;BME280;17724;53.546;9.974;2023-02-23T22:14:31;101291.56;;;6.57;76.27
31062;BME280;17724;53.546;9.974;2023-02-23T22:18:31;101318.19;;;6.68;76.46
31062;BME280;17724;53.546;9.974;2023-02-23T22:22:32;101312.44;;;6.45;75.38
31062;BME280;17724;53.546;9.974;2023-02-23T22:26:37;101305.00;;;6.27;72.02
31062;BME280;17724;53.546;9.974;2023-02-23T22:30:40;101297.22;;;6.24;71.02
31062;BME280;17724;53.546;9.974;2023-02-23T22:34:41;101297.41;;;6.29;70.18
31062;BME280;17724;53.546;9.974;2023-02-23T22:38:43;101298.75;;;6.51;71.11
31062;BME280;17724;53.546;9.974;2023-02-23T22:42:44;101292.59;;;6.24;70.21
31062;BME280;17724;53.546;9.974;2023-02-23T22:46:47;101300.69;;;6.44;71.18